sensor_id;sensor_type;location;lat;lon;timestamp;temperature;humidity
3866;DHT22;1948;53.250;10.412;2024-03-22T00:00:01;9.60;99.90
3866;DHT22;1948;53.250;10.412;2024-03-22T00:02:27;9.60;99.90
3866;DHT22;1948;53.250;10.412;2024-03-22T00:04:53;9.80;99.90
3866;DHT22;1948;53.250;10.412;2024-03-22T00:07:19;9.60;99.90
3866;DHT22;1948;53.250;10.412;2024-03-22T00:09:45;9.60;99.90
3866;DHT22;1948;53.250;10.412;2024-03-22T00:12:13;9.70;99.90
3866;DHT22;1948;53.250;10.412;2024-03-22T00:14:39;9.70;99.90
3866;DHT22;1948;53.250;10.412;2024-03-22T00:17:05;9.70;99.90
3866;DHT22;1948;53.250;10.412;2024-03-22T00:19:31;9.60;99.90
3866;DHT22;1948;53.250;10.412;2024-03-22T00:21:57;9.50;99.90
3866;DHT22;1948;53.250;10.412;2024-03-22T00:24:25;9.50;99.90
3866;DHT22;1948;53.250;10.412;2024-03-22T00:26:51;9.50;99.90
3866;DHT22;1948;53.250;10.412;2024-03-22T00:29:19;9.60;99.90
3866;DHT22;1948;53.250;10.412;2024-03-22T00:31:45;9.60;99.90
3866;DHT22;1948;53.250;10.412;2024-03-22T00:34:16;9.50;99.90
3866;DHT22;1948;53.250;10.412;2024-03-22T00:36:45;9.50;99.90
3866;DHT22;1948;53.250;10.412;2024-03-22T00:39:16;9.50;99.90
3866;DHT22;1948;53.250;10.412;2024-03-22T00:41:43;9.60;99.90
3866;DHT22;1948;53.250;10.412;2024-03-22T00:44:12;9.50;99.90
3866;DHT22;1948;53.250;10.412;2024-03-22T00:46:38;9.60;99.90
3866;DHT22;1948;53.250;10.412;2024-03-22T00:49:08;9.60;99.90
3866;DHT22;1948;53.250;10.412;2024-03-22T00:51:34;9.50;99.90
3866;DHT22;1948;53.250;10.412;2024-03-22T00:54:00;9.60;99.90
3866;DHT22;1948;53.250;10.412;2024-03-22T00:56:26;9.60;99.90
3866;DHT22;1948;53.250;10.412;2024-03-22T00:58:52;9.70;99.90
3866;DHT22;1948;53.250;10.412;2024-03-22T01:01:18;9.50;99.90
3866;DHT22;1948;53.250;10.412;2024-03-22T01:03:46;9.60;99.90
3866;DHT22;1948;53.250;10.412;2024-03-22T01:06:12;9.70;99.90
3866;DHT22;1948;53.250;10.412;2024-03-22T01:08:38;9.70;99.90
3866;DHT22;1948;53.250;10.412;2024-03-22T01:11:04;9.70;99.90
3866;DHT22;1948;53.250;10.412;2024-03-22T01:13:30;9.80;99.90
3866;DHT22;1948;53.250;10.412;2024-03-22T01:15:56;9.70;99.90
3866;DHT22;1948;53.250;10.412;2024-03-22T01:18:22;9.70;99.90
3866;DHT22;1948;53.250;10.412;2024-03-22T01:20:48;9.70;99.90
3866;DHT22;1948;53.250;10.412;2024-03-22T01:23:13;9.90;99.90
3866;DHT22;1948;53.250;10.412;2024-03-22T01:25:39;9.80;99.90
3866;DHT22;1948;53.250;10.412;2024-03-22T01:28:05;9.80;99.90
3866;DHT22;1948;53.250;10.412;2024-03-22T01:32:57;9.80;99.90
3866;DHT22;1948;53.250;10.412;2024-03-22T01:35:26;9.70;99.90
3866;DHT22;1948;53.250;10.412;2024-03-22T01:37:52;9.70;99.90
3866;DHT22;1948;53.250;10.412;2024-03-22T01:40:18;9.70;99.90
3866;DHT22;1948;53.250;10.412;2024-03-22T01:42:47;9.70;99.90
3866;DHT22;1948;53.250;10.412;2024-03-22T01:45:16;9.70;99.90
3866;DHT22;1948;53.250;10.412;2024-03-22T01:47:42;9.70;99.90
3866;DHT22;1948;53.250;10.412;2024-03-22T01:50:09;9.80;99.90
3866;DHT22;1948;53.250;10.412;2024-03-22T01:52:36;9.70;99.90
3866;DHT22;1948;53.250;10.412;2024-03-22T01:55:04;9.80;99.90
3866;DHT22;1948;53.250;10.412;2024-03-22T01:57:33;9.70;99.90
3866;DHT22;1948;53.250;10.412;2024-03-22T01:59:59;9.70;99.90
3866;DHT22;1948;53.250;10.412;2024-03-22T02:02:28;9.70;99.90
3866;DHT22;1948;53.250;10.412;2024-03-22T02:04:59;9.60;99.90
3866;DHT22;1948;53.250;10.412;2024-03-22T02:07:29;9.60;99.90
3866;DHT22;1948;53.250;10.412;2024-03-22T02:09:58;9.70;99.90
3866;DHT22;1948;53.250;10.412;2024-03-22T02:12:24;9.70;99.90
3866;DHT22;1948;53.250;10.412;2024-03-22T02:14:50;9.70;99.90
3866;DHT22;1948;53.250;10.412;2024-03-22T02:17:19;9.60;99.90
3866;DHT22;1948;53.250;10.412;2024-03-22T02:19:44;9.60;99.90
3866;DHT22;1948;53.250;10.412;2024-03-22T02:22:11;9.60;99.90
3866;DHT22;1948;53.250;10.412;2024-03-22T02:24:39;9.60;99.90
3866;DHT22;1948;53.250;10.412;2024-03-22T02:27:09;9.60;99.90
3866;DHT22;1948;53.250;10.412;2024-03-22T02:29:38;9.60;99.90
3866;DHT22;1948;53.250;10.412;2024-03-22T02:32:06;9.60;99.90
3866;DHT22;1948;53.250;10.412;2024-03-22T02:34:32;9.60;99.90
3866;DHT22;1948;53.250;10.412;2024-03-22T02:36:58;9.60;99.90
3866;DHT22;1948;53.250;10.412;2024-03-22T02:39:24;9.60;99.90
3866;DHT22;1948;53.250;10.412;2024-03-22T02:41:54;9.70;99.90
3866;DHT22;1948;53.250;10.412;2024-03-22T02:44:23;9.60;99.90
3866;DHT22;1948;53.250;10.412;2024-03-22T02:46:49;9.70;99.90
3866;DHT22;1948;53.250;10.412;2024-03-22T02:49:15;9.70;99.90
3866;DHT22;1948;53.250;10.412;2024-03-22T02:51:43;9.70;99.90
3866;DHT22;1948;53.250;10.412;2024-03-22T02:54:09;9.70;99.90
3866;DHT22;1948;53.250;10.412;2024-03-22T02:56:38;9.70;99.90
3866;DHT22;1948;53.250;10.412;2024-03-22T02:59:06;9.80;99.90
3866;DHT22;1948;53.250;10.412;2024-03-22T03:01:35;9.80;99.90
3866;DHT22;1948;53.250;10.412;2024-03-22T03:04:03;9.80;99.90
3866;DHT22;1948;53.250;10.412;2024-03-22T03:06:29;9.90;99.90
3866;DHT22;1948;53.250;10.412;2024-03-22T03:08:58;9.90;99.90
3866;DHT22;1948;53.250;10.412;2024-03-22T03:11:24;9.90;99.90
3866;DHT22;1948;53.250;10.412;2024-03-22T03:13:50;10.10;99.90
3866;DHT22;1948;53.250;10.412;2024-03-22T03:16:16;10.10;99.90
3866;DHT22;1948;53.250;10.412;2024-03-22T03:18:42;10.10;99.90
3866;DHT22;1948;53.250;10.412;2024-03-22T03:21:08;10.10;99.90
3866;DHT22;1948;53.250;10.412;2024-03-22T03:23:35;10.10;99.90
3866;DHT22;1948;53.250;10.412;2024-03-22T03:26:04;10.10;99.90
3866;DHT22;1948;53.250;10.412;2024-03-22T03:28:29;10.10;99.90
3866;DHT22;1948;53.250;10.412;2024-03-22T03:30:58;10.10;99.90
3866;DHT22;1948;53.250;10.412;2024-03-22T03:33:24;10.10;99.90
3866;DHT22;1948;53.250;10.412;2024-03-22T03:35:50;10.10;99.90
3866;DHT22;1948;53.250;10.412;2024-03-22T03:38:16;10.20;99.90
3866;DHT22;1948;53.250;10.412;2024-03-22T03:40:44;10.20;99.90
3866;DHT22;1948;53.250;10.412;2024-03-22T03:43:13;10.20;99.90
3866;DHT22;1948;53.250;10.412;2024-03-22T03:45:39;10.20;99.90
3866;DHT22;1948;53.250;10.412;2024-03-22T03:48:06;10.20;99.90
3866;DHT22;1948;53.250;10.412;2024-03-22T03:50:32;10.20;99.90
3866;DHT22;1948;53.250;10.412;2024-03-22T03:52:58;10.20;99.90
3866;DHT22;1948;53.250;10.412;2024-03-22T03:55:26;10.20;99.90
3866;DHT22;1948;53.250;10.412;2024-03-22T03:57:52;10.10;99.90
3866;DHT22;1948;53.250;10.412;2024-03-22T04:00:21;10.10;99.90
3866;DHT22;1948;53.250;10.412;2024-03-22T04:02:50;10.10;99.90
3866;DHT22;1948;53.250;10.412;2024-03-22T04:05:16;10.10;99.90
3866;DHT22;1948;53.250;10.412;2024-03-22T04:07:46;10.10;99.90
3866;DHT22;1948;53.250;10.412;2024-03-22T04:10:12;10.10;99.90
3866;DHT22;1948;53.250;10.412;2024-03-22T04:12:38;10.20;99.90
3866;DHT22;1948;53.250;10.412;2024-03-22T04:15:05;10.30;99.90
3866;DHT22;1948;53.250;10.412;2024-03-22T04:17:33;10.20;99.90
3866;DHT22;1948;53.250;10.412;2024-03-22T04:19:59;10.30;99.90
3866;DHT22;1948;53.250;10.412;2024-03-22T04:22:25;10.30;99.90
3866;DHT22;1948;53.250;10.412;2024-03-22T04:24:53;10.30;99.90
3866;DHT22;1948;53.250;10.412;2024-03-22T04:27:19;10.20;99.90
3866;DHT22;1948;53.250;10.412;2024-03-22T04:29:47;10.20;99.90
3866;DHT22;1948;53.250;10.412;2024-03-22T04:32:13;10.30;99.90
3866;DHT22;1948;53.250;10.412;2024-03-22T04:34:45;10.20;99.90
3866;DHT22;1948;53.250;10.412;2024-03-22T04:37:13;10.20;99.90
3866;DHT22;1948;53.250;10.412;2024-03-22T04:39:46;10.20;99.90
3866;DHT22;1948;53.250;10.412;2024-03-22T04:42:14;10.20;99.90
3866;DHT22;1948;53.250;10.412;2024-03-22T04:44:44;10.30;99.90
3866;DHT22;1948;53.250;10.412;2024-03-22T04:47:12;10.30;99.90
3866;DHT22;1948;53.250;10.412;2024-03-22T04:49:40;10.30;99.90
3866;DHT22;1948;53.250;10.412;2024-03-22T04:52:09;10.30;99.90
3866;DHT22;1948;53.250;10.412;2024-03-22T04:54:35;10.30;99.90
3866;DHT22;1948;53.250;10.412;2024-03-22T04:57:01;10.10;99.90
3866;DHT22;1948;53.250;10.412;2024-03-22T04:59:30;10.30;99.90
3866;DHT22;1948;53.250;10.412;2024-03-22T05:01:56;10.30;99.90
3866;DHT22;1948;53.250;10.412;2024-03-22T05:04:22;10.30;99.90
3866;DHT22;1948;53.250;10.412;2024-03-22T05:06:48;10.30;99.90
3866;DHT22;1948;53.250;10.412;2024-03-22T05:09:19;10.30;99.90
3866;DHT22;1948;53.250;10.412;2024-03-22T05:11:47;10.30;99.90
3866;DHT22;1948;53.250;10.412;2024-03-22T05:14:18;10.30;99.90
3866;DHT22;1948;53.250;10.412;2024-03-22T05:16:47;10.40;99.90
3866;DHT22;1948;53.250;10.412;2024-03-22T05:19:13;10.40;99.90
3866;DHT22;1948;53.250;10.412;2024-03-22T05:21:38;10.30;99.90
3866;DHT22;1948;53.250;10.412;2024-03-22T05:24:10;10.40;99.90
3866;DHT22;1948;53.250;10.412;2024-03-22T05:26:36;10.40;99.90
3866;DHT22;1948;53.250;10.412;2024-03-22T05:29:02;10.40;99.90
3866;DHT22;1948;53.250;10.412;2024-03-22T05:31:31;10.40;99.90
3866;DHT22;1948;53.250;10.412;2024-03-22T05:33:59;10.40;99.90
3866;DHT22;1948;53.250;10.412;2024-03-22T05:36:25;10.40;99.90
3866;DHT22;1948;53.250;10.412;2024-03-22T05:38:51;10.40;99.90
3866;DHT22;1948;53.250;10.412;2024-03-22T05:41:20;10.40;99.90
3866;DHT22;1948;53.250;10.412;2024-03-22T05:43:48;10.40;99.90
3866;DHT22;1948;53.250;10.412;2024-03-22T05:46:14;10.40;99.90
3866;DHT22;1948;53.250;10.412;2024-03-22T05:48:40;10.40;99.90
3866;DHT22;1948;53.250;10.412;2024-03-22T05:51:06;10.40;99.90
3866;DHT22;1948;53.250;10.412;2024-03-22T05:53:35;10.50;99.90
3866;DHT22;1948;53.250;10.412;2024-03-22T05:56:06;10.50;99.90
3866;DHT22;1948;53.250;10.412;2024-03-22T05:58:35;10.50;99.90
3866;DHT22;1948;53.250;10.412;2024-03-22T06:01:02;10.50;99.90
3866;DHT22;1948;53.250;10.412;2024-03-22T06:03:29;10.40;99.90
3866;DHT22;1948;53.250;10.412;2024-03-22T06:05:58;10.50;99.90
3866;DHT22;1948;53.250;10.412;2024-03-22T06:08:29;10.60;99.90
3866;DHT22;1948;53.250;10.412;2024-03-22T06:11:00;10.50;99.90
3866;DHT22;1948;53.250;10.412;2024-03-22T06:13:26;10.50;99.90
3866;DHT22;1948;53.250;10.412;2024-03-22T06:15:55;10.60;99.90
3866;DHT22;1948;53.250;10.412;2024-03-22T06:18:21;10.70;99.90
3866;DHT22;1948;53.250;10.412;2024-03-22T06:20:49;10.70;99.90
3866;DHT22;1948;53.250;10.412;2024-03-22T06:23:21;10.70;99.90
3866;DHT22;1948;53.250;10.412;2024-03-22T06:25:54;10.70;99.90
3866;DHT22;1948;53.250;10.412;2024-03-22T06:28:23;10.70;99.90
3866;DHT22;1948;53.250;10.412;2024-03-22T06:30:50;10.70;99.90
3866;DHT22;1948;53.250;10.412;2024-03-22T06:33:16;10.70;99.90
3866;DHT22;1948;53.250;10.412;2024-03-22T06:35:45;10.80;99.90
3866;DHT22;1948;53.250;10.412;2024-03-22T06:38:12;10.80;99.90
3866;DHT22;1948;53.250;10.412;2024-03-22T06:40:41;10.90;99.90
3866;DHT22;1948;53.250;10.412;2024-03-22T06:43:07;11.00;99.90
3866;DHT22;1948;53.250;10.412;2024-03-22T06:45:36;10.90;99.90
3866;DHT22;1948;53.250;10.412;2024-03-22T06:48:05;11.00;99.90
3866;DHT22;1948;53.250;10.412;2024-03-22T06:50:31;11.00;99.90
3866;DHT22;1948;53.250;10.412;2024-03-22T06:52:57;11.00;99.90
3866;DHT22;1948;53.250;10.412;2024-03-22T06:55:23;11.10;99.90
3866;DHT22;1948;53.250;10.412;2024-03-22T06:57:51;11.20;99.90
3866;DHT22;1948;53.250;10.412;2024-03-22T07:00:18;11.20;99.90
3866;DHT22;1948;53.250;10.412;2024-03-22T07:02:47;11.30;99.90
3866;DHT22;1948;53.250;10.412;2024-03-22T07:05:13;11.30;99.90
3866;DHT22;1948;53.250;10.412;2024-03-22T07:07:39;11.40;99.90
3866;DHT22;1948;53.250;10.412;2024-03-22T07:10:05;11.50;99.90
3866;DHT22;1948;53.250;10.412;2024-03-22T07:12:34;11.50;99.90
3866;DHT22;1948;53.250;10.412;2024-03-22T07:15:03;11.50;99.90
3866;DHT22;1948;53.250;10.412;2024-03-22T07:17:29;11.50;99.90
3866;DHT22;1948;53.250;10.412;2024-03-22T07:19:55;11.60;99.90
3866;DHT22;1948;53.250;10.412;2024-03-22T07:22:25;11.60;99.90
3866;DHT22;1948;53.250;10.412;2024-03-22T07:24:53;11.70;99.90
3866;DHT22;1948;53.250;10.412;2024-03-22T07:27:20;11.80;99.90
3866;DHT22;1948;53.250;10.412;2024-03-22T07:29:46;11.80;99.90
3866;DHT22;1948;53.250;10.412;2024-03-22T07:32:13;11.80;99.90
3866;DHT22;1948;53.250;10.412;2024-03-22T07:34:39;11.90;99.90
3866;DHT22;1948;53.250;10.412;2024-03-22T07:37:05;11.90;99.90
3866;DHT22;1948;53.250;10.412;2024-03-22T07:39:31;11.90;99.90
3866;DHT22;1948;53.250;10.412;2024-03-22T07:41:57;12.00;99.90
3866;DHT22;1948;53.250;10.412;2024-03-22T07:44:23;12.10;99.90
3866;DHT22;1948;53.250;10.412;2024-03-22T07:46:54;12.10;99.90
3866;DHT22;1948;53.250;10.412;2024-03-22T07:49:20;12.30;99.90
3866;DHT22;1948;53.250;10.412;2024-03-22T07:51:54;12.20;99.90
3866;DHT22;1948;53.250;10.412;2024-03-22T07:54:20;12.30;99.90
3866;DHT22;1948;53.250;10.412;2024-03-22T07:56:46;12.20;99.90
3866;DHT22;1948;53.250;10.412;2024-03-22T07:59:12;12.20;99.90
3866;DHT22;1948;53.250;10.412;2024-03-22T08:01:38;12.20;99.90
3866;DHT22;1948;53.250;10.412;2024-03-22T08:04:07;12.10;99.90
3866;DHT22;1948;53.250;10.412;2024-03-22T08:06:33;12.10;99.90
3866;DHT22;1948;53.250;10.412;2024-03-22T08:09:01;12.10;99.90
3866;DHT22;1948;53.250;10.412;2024-03-22T08:11:29;12.00;99.90
3866;DHT22;1948;53.250;10.412;2024-03-22T08:13:56;12.00;99.90
3866;DHT22;1948;53.250;10.412;2024-03-22T08:16:28;12.00;99.90
3866;DHT22;1948;53.250;10.412;2024-03-22T08:18:55;12.00;99.90
3866;DHT22;1948;53.250;10.412;2024-03-22T08:21:24;12.00;99.90
3866;DHT22;1948;53.250;10.412;2024-03-22T08:23:51;12.00;99.90
3866;DHT22;1948;53.250;10.412;2024-03-22T08:26:17;11.90;99.90
3866;DHT22;1948;53.250;10.412;2024-03-22T08:28:46;11.90;99.90
3866;DHT22;1948;53.250;10.412;2024-03-22T08:31:16;12.00;99.90
3866;DHT22;1948;53.250;10.412;2024-03-22T08:33:43;12.00;99.90
3866;DHT22;1948;53.250;10.412;2024-03-22T08:36:11;12.10;99.90
3866;DHT22;1948;53.250;10.412;2024-03-22T08:38:37;12.10;99.90
3866;DHT22;1948;53.250;10.412;2024-03-22T08:41:03;12.10;99.90
3866;DHT22;1948;53.250;10.412;2024-03-22T08:43:29;12.10;99.90
3866;DHT22;1948;53.250;10.412;2024-03-22T08:45:55;12.10;99.90
3866;DHT22;1948;53.250;10.412;2024-03-22T08:48:21;12.10;99.90
3866;DHT22;1948;53.250;10.412;2024-03-22T08:50:48;12.10;99.90
3866;DHT22;1948;53.250;10.412;2024-03-22T08:53:16;12.20;99.90
3866;DHT22;1948;53.250;10.412;2024-03-22T08:55:49;12.20;99.90
3866;DHT22;1948;53.250;10.412;2024-03-22T08:58:17;12.10;99.90
3866;DHT22;1948;53.250;10.412;2024-03-22T09:00:46;12.10;99.90
3866;DHT22;1948;53.250;10.412;2024-03-22T09:03:14;12.00;99.90
3866;DHT22;1948;53.250;10.412;2024-03-22T09:05:43;12.10;99.90
3866;DHT22;1948;53.250;10.412;2024-03-22T09:08:12;12.10;99.90
3866;DHT22;1948;53.250;10.412;2024-03-22T09:10:40;12.10;99.90
3866;DHT22;1948;53.250;10.412;2024-03-22T09:13:06;12.00;99.90
3866;DHT22;1948;53.250;10.412;2024-03-22T09:15:32;12.00;99.90
3866;DHT22;1948;53.250;10.412;2024-03-22T09:17:58;12.00;99.90
3866;DHT22;1948;53.250;10.412;2024-03-22T09:20:23;12.00;99.90
3866;DHT22;1948;53.250;10.412;2024-03-22T09:22:49;12.00;99.90
3866;DHT22;1948;53.250;10.412;2024-03-22T09:25:20;12.10;99.90
3866;DHT22;1948;53.250;10.412;2024-03-22T09:27:46;12.20;99.90
3866;DHT22;1948;53.250;10.412;2024-03-22T09:30:17;12.20;99.90
3866;DHT22;1948;53.250;10.412;2024-03-22T09:32:45;12.20;99.90
3866;DHT22;1948;53.250;10.412;2024-03-22T09:35:11;12.10;99.90
3866;DHT22;1948;53.250;10.412;2024-03-22T09:37:40;12.10;99.90
3866;DHT22;1948;53.250;10.412;2024-03-22T09:40:07;12.10;99.90
3866;DHT22;1948;53.250;10.412;2024-03-22T09:42:35;12.10;99.90
3866;DHT22;1948;53.250;10.412;2024-03-22T09:45:09;12.10;99.90
3866;DHT22;1948;53.250;10.412;2024-03-22T09:47:36;12.10;99.90
3866;DHT22;1948;53.250;10.412;2024-03-22T09:50:07;12.10;99.90
3866;DHT22;1948;53.250;10.412;2024-03-22T09:52:38;12.10;99.90
3866;DHT22;1948;53.250;10.412;2024-03-22T09:55:05;12.10;99.90
3866;DHT22;1948;53.250;10.412;2024-03-22T09:57:35;12.20;99.90
3866;DHT22;1948;53.250;10.412;2024-03-22T10:00:06;12.20;99.90
3866;DHT22;1948;53.250;10.412;2024-03-22T10:02:34;12.20;99.90
3866;DHT22;1948;53.250;10.412;2024-03-22T10:05:03;12.20;99.90
3866;DHT22;1948;53.250;10.412;2024-03-22T10:07:29;12.20;99.90
3866;DHT22;1948;53.250;10.412;2024-03-22T10:10:03;12.30;99.90
3866;DHT22;1948;53.250;10.412;2024-03-22T10:12:29;12.30;99.90
3866;DHT22;1948;53.250;10.412;2024-03-22T10:14:57;12.40;99.90
3866;DHT22;1948;53.250;10.412;2024-03-22T10:17:26;12.40;99.90
3866;DHT22;1948;53.250;10.412;2024-03-22T10:19:53;12.40;99.90
3866;DHT22;1948;53.250;10.412;2024-03-22T10:22:19;12.40;99.90
3866;DHT22;1948;53.250;10.412;2024-03-22T10:24:50;12.30;99.90
3866;DHT22;1948;53.250;10.412;2024-03-22T10:27:16;12.30;99.90
3866;DHT22;1948;53.250;10.412;2024-03-22T10:29:44;12.30;99.90
3866;DHT22;1948;53.250;10.412;2024-03-22T10:32:11;12.30;99.90
3866;DHT22;1948;53.250;10.412;2024-03-22T10:34:40;12.30;99.90
3866;DHT22;1948;53.250;10.412;2024-03-22T10:37:08;12.20;99.90
3866;DHT22;1948;53.250;10.412;2024-03-22T10:39:38;12.20;99.90
3866;DHT22;1948;53.250;10.412;2024-03-22T10:42:04;12.10;99.90
3866;DHT22;1948;53.250;10.412;2024-03-22T10:44:30;12.20;99.90
3866;DHT22;1948;53.250;10.412;2024-03-22T10:47:01;12.20;99.90
3866;DHT22;1948;53.250;10.412;2024-03-22T10:49:29;12.30;99.90
3866;DHT22;1948;53.250;10.412;2024-03-22T10:52:00;12.30;99.90
3866;DHT22;1948;53.250;10.412;2024-03-22T10:54:40;12.30;99.90
3866;DHT22;1948;53.250;10.412;2024-03-22T10:57:12;12.30;99.90
3866;DHT22;1948;53.250;10.412;2024-03-22T10:59:41;12.30;99.90
3866;DHT22;1948;53.250;10.412;2024-03-22T11:02:13;12.40;99.90
3866;DHT22;1948;53.250;10.412;2024-03-22T11:04:39;12.40;99.90
3866;DHT22;1948;53.250;10.412;2024-03-22T11:07:05;12.50;99.90
3866;DHT22;1948;53.250;10.412;2024-03-22T11:09:31;12.50;99.90
3866;DHT22;1948;53.250;10.412;2024-03-22T11:11:59;12.60;99.90
3866;DHT22;1948;53.250;10.412;2024-03-22T11:14:26;12.60;99.90
3866;DHT22;1948;53.250;10.412;2024-03-22T11:16:52;12.60;99.90
3866;DHT22;1948;53.250;10.412;2024-03-22T11:19:20;12.60;99.90
3866;DHT22;1948;53.250;10.412;2024-03-22T11:21:46;12.70;99.90
3866;DHT22;1948;53.250;10.412;2024-03-22T11:24:12;12.70;99.90
3866;DHT22;1948;53.250;10.412;2024-03-22T11:26:41;12.70;99.90
3866;DHT22;1948;53.250;10.412;2024-03-22T11:29:14;12.70;99.90
3866;DHT22;1948;53.250;10.412;2024-03-22T11:31:40;12.80;99.90
3866;DHT22;1948;53.250;10.412;2024-03-22T11:34:08;12.80;99.90
3866;DHT22;1948;53.250;10.412;2024-03-22T11:36:35;12.80;99.90
3866;DHT22;1948;53.250;10.412;2024-03-22T11:39:01;12.80;99.90
3866;DHT22;1948;53.250;10.412;2024-03-22T11:41:31;12.80;99.90
3866;DHT22;1948;53.250;10.412;2024-03-22T11:43:58;12.90;99.90
3866;DHT22;1948;53.250;10.412;2024-03-22T11:46:26;12.80;99.90
3866;DHT22;1948;53.250;10.412;2024-03-22T11:48:58;12.90;99.90
3866;DHT22;1948;53.250;10.412;2024-03-22T11:51:24;12.80;99.90
3866;DHT22;1948;53.250;10.412;2024-03-22T11:53:51;12.80;99.90
3866;DHT22;1948;53.250;10.412;2024-03-22T11:56:20;12.90;99.90
3866;DHT22;1948;53.250;10.412;2024-03-22T11:58:47;12.90;99.90
3866;DHT22;1948;53.250;10.412;2024-03-22T12:01:16;12.90;99.90
3866;DHT22;1948;53.250;10.412;2024-03-22T12:03:48;12.90;99.90
3866;DHT22;1948;53.250;10.412;2024-03-22T12:06:15;12.80;99.90
3866;DHT22;1948;53.250;10.412;2024-03-22T12:08:44;12.80;99.90
3866;DHT22;1948;53.250;10.412;2024-03-22T12:11:10;12.90;99.90
3866;DHT22;1948;53.250;10.412;2024-03-22T12:13:38;13.10;99.90
3866;DHT22;1948;53.250;10.412;2024-03-22T12:16:05;13.30;99.90
3866;DHT22;1948;53.250;10.412;2024-03-22T12:18:33;13.40;99.90
3866;DHT22;1948;53.250;10.412;2024-03-22T12:21:02;13.30;99.90
3866;DHT22;1948;53.250;10.412;2024-03-22T12:23:29;13.20;99.90
3866;DHT22;1948;53.250;10.412;2024-03-22T12:25:57;13.40;99.90
3866;DHT22;1948;53.250;10.412;2024-03-22T12:28:25;13.30;99.90
3866;DHT22;1948;53.250;10.412;2024-03-22T12:30:51;13.40;99.90
3866;DHT22;1948;53.250;10.412;2024-03-22T12:33:18;13.30;99.90
3866;DHT22;1948;53.250;10.412;2024-03-22T12:35:46;13.40;99.90
3866;DHT22;1948;53.250;10.412;2024-03-22T12:38:13;13.40;99.90
3866;DHT22;1948;53.250;10.412;2024-03-22T12:40:44;13.50;99.90
3866;DHT22;1948;53.250;10.412;2024-03-22T12:43:13;13.60;99.90
3866;DHT22;1948;53.250;10.412;2024-03-22T12:45:39;13.60;99.90
3866;DHT22;1948;53.250;10.412;2024-03-22T12:48:05;13.40;99.90
3866;DHT22;1948;53.250;10.412;2024-03-22T12:50:34;13.40;99.90
3866;DHT22;1948;53.250;10.412;2024-03-22T12:53:03;13.40;99.90
3866;DHT22;1948;53.250;10.412;2024-03-22T12:55:33;13.40;99.90
3866;DHT22;1948;53.250;10.412;2024-03-22T12:57:58;13.40;99.90
3866;DHT22;1948;53.250;10.412;2024-03-22T13:00:24;13.40;99.90
3866;DHT22;1948;53.250;10.412;2024-03-22T13:02:53;13.40;99.90
3866;DHT22;1948;53.250;10.412;2024-03-22T13:05:19;13.60;99.90
3866;DHT22;1948;53.250;10.412;2024-03-22T13:07:45;13.60;99.90
3866;DHT22;1948;53.250;10.412;2024-03-22T13:10:12;13.50;99.90
3866;DHT22;1948;53.250;10.412;2024-03-22T13:12:40;13.50;99.90
3866;DHT22;1948;53.250;10.412;2024-03-22T13:15:09;13.50;99.90
3866;DHT22;1948;53.250;10.412;2024-03-22T13:17:35;13.40;99.90
3866;DHT22;1948;53.250;10.412;2024-03-22T13:20:03;13.40;99.90
3866;DHT22;1948;53.250;10.412;2024-03-22T13:22:37;13.30;99.90
3866;DHT22;1948;53.250;10.412;2024-03-22T13:25:08;13.20;99.90
3866;DHT22;1948;53.250;10.412;2024-03-22T13:27:38;13.10;99.90
3866;DHT22;1948;53.250;10.412;2024-03-22T13:30:06;13.00;99.90
3866;DHT22;1948;53.250;10.412;2024-03-22T13:32:37;12.90;99.90
3866;DHT22;1948;53.250;10.412;2024-03-22T13:35:08;12.80;99.90
3866;DHT22;1948;53.250;10.412;2024-03-22T13:37:35;12.70;99.90
3866;DHT22;1948;53.250;10.412;2024-03-22T13:40:01;12.70;99.90
3866;DHT22;1948;53.250;10.412;2024-03-22T13:42:27;12.70;99.90
3866;DHT22;1948;53.250;10.412;2024-03-22T13:45:01;12.70;99.90
3866;DHT22;1948;53.250;10.412;2024-03-22T13:47:29;12.80;99.90
3866;DHT22;1948;53.250;10.412;2024-03-22T13:49:58;12.80;99.90
3866;DHT22;1948;53.250;10.412;2024-03-22T13:52:26;12.80;99.90
3866;DHT22;1948;53.250;10.412;2024-03-22T13:54:52;12.80;99.90
3866;DHT22;1948;53.250;10.412;2024-03-22T13:57:24;12.80;99.90
3866;DHT22;1948;53.250;10.412;2024-03-22T13:59:50;12.80;99.90
3866;DHT22;1948;53.250;10.412;2024-03-22T14:02:16;13.10;99.90
3866;DHT22;1948;53.250;10.412;2024-03-22T14:04:42;13.10;99.90
3866;DHT22;1948;53.250;10.412;2024-03-22T14:07:10;13.20;99.90
3866;DHT22;1948;53.250;10.412;2024-03-22T14:09:38;13.20;99.90
3866;DHT22;1948;53.250;10.412;2024-03-22T14:12:06;13.20;99.90
3866;DHT22;1948;53.250;10.412;2024-03-22T14:14:32;13.20;99.90
3866;DHT22;1948;53.250;10.412;2024-03-22T14:16:58;13.20;99.90
3866;DHT22;1948;53.250;10.412;2024-03-22T14:19:24;13.10;99.90
3866;DHT22;1948;53.250;10.412;2024-03-22T14:21:51;13.10;99.90
3866;DHT22;1948;53.250;10.412;2024-03-22T14:24:16;13.10;99.90
3866;DHT22;1948;53.250;10.412;2024-03-22T14:26:45;13.20;99.90
3866;DHT22;1948;53.250;10.412;2024-03-22T14:29:16;13.10;99.90
3866;DHT22;1948;53.250;10.412;2024-03-22T14:31:44;13.10;99.90
3866;DHT22;1948;53.250;10.412;2024-03-22T14:34:14;13.20;99.90
3866;DHT22;1948;53.250;10.412;2024-03-22T14:36:40;13.10;99.90
3866;DHT22;1948;53.250;10.412;2024-03-22T14:39:06;13.10;99.90
3866;DHT22;1948;53.250;10.412;2024-03-22T14:41:32;13.00;99.90
3866;DHT22;1948;53.250;10.412;2024-03-22T14:44:01;12.90;99.90
3866;DHT22;1948;53.250;10.412;2024-03-22T14:46:27;12.90;99.90
3866;DHT22;1948;53.250;10.412;2024-03-22T14:48:55;13.00;99.90
3866;DHT22;1948;53.250;10.412;2024-03-22T14:51:21;13.10;99.90
3866;DHT22;1948;53.250;10.412;2024-03-22T14:53:47;13.40;99.90
3866;DHT22;1948;53.250;10.412;2024-03-22T14:56:16;13.40;99.90
3866;DHT22;1948;53.250;10.412;2024-03-22T14:58:44;13.50;99.90
3866;DHT22;1948;53.250;10.412;2024-03-22T15:01:10;13.60;99.90
3866;DHT22;1948;53.250;10.412;2024-03-22T15:03:36;13.80;99.90
3866;DHT22;1948;53.250;10.412;2024-03-22T15:06:02;13.90;99.90
3866;DHT22;1948;53.250;10.412;2024-03-22T15:08:33;14.00;99.90
3866;DHT22;1948;53.250;10.412;2024-03-22T15:10:59;13.80;99.90
3866;DHT22;1948;53.250;10.412;2024-03-22T15:13:27;13.70;99.90
3866;DHT22;1948;53.250;10.412;2024-03-22T15:15:59;13.50;99.90
3866;DHT22;1948;53.250;10.412;2024-03-22T15:18:25;13.40;99.90
3866;DHT22;1948;53.250;10.412;2024-03-22T15:20:56;13.10;99.90
3866;DHT22;1948;53.250;10.412;2024-03-22T15:23:22;13.00;99.90
3866;DHT22;1948;53.250;10.412;2024-03-22T15:25:48;13.00;99.90
3866;DHT22;1948;53.250;10.412;2024-03-22T15:28:16;12.80;99.90
3866;DHT22;1948;53.250;10.412;2024-03-22T15:30:45;12.80;99.90
3866;DHT22;1948;53.250;10.412;2024-03-22T15:33:11;12.90;99.90
3866;DHT22;1948;53.250;10.412;2024-03-22T15:35:37;12.90;99.90
3866;DHT22;1948;53.250;10.412;2024-03-22T15:38:03;12.80;99.90
3866;DHT22;1948;53.250;10.412;2024-03-22T15:40:31;12.80;99.90
3866;DHT22;1948;53.250;10.412;2024-03-22T15:43:02;12.70;99.90
3866;DHT22;1948;53.250;10.412;2024-03-22T15:45:34;12.70;99.90
3866;DHT22;1948;53.250;10.412;2024-03-22T15:48:06;12.70;99.90
3866;DHT22;1948;53.250;10.412;2024-03-22T15:50:36;12.70;99.90
3866;DHT22;1948;53.250;10.412;2024-03-22T15:53:02;12.60;99.90